sensor_id;sensor_type;location;lat;lon;timestamp;P1;durP1;ratioP1;P2;durP2;ratioP2
61104;SDS011;46987;32.638;-115.438;2023-04-01T00:01:15;4.95;;;1.15;;
61104;SDS011;46987;32.638;-115.438;2023-04-01T00:03:42;3.75;;;1.27;;
61104;SDS011;46987;32.638;-115.438;2023-04-01T00:06:09;6.47;;;1.38;;
61104;SDS011;46987;32.638;-115.438;2023-04-01T00:08:37;6.28;;;1.00;;
61104;SDS011;46987;32.638;-115.438;2023-04-01T00:11:04;5.15;;;1.20;;
61104;SDS011;46987;32.638;-115.438;2023-04-01T00:13:32;4.32;;;0.95;;
61104;SDS011;46987;32.638;-115.438;2023-04-01T00:15:59;10.57;;;1.70;;
61104;SDS011;46987;32.638;-115.438;2023-04-01T00:18:27;4.78;;;1.20;;
61104;SDS011;46987;32.638;-115.438;2023-04-01T00:20:54;8.65;;;1.27;;
61104;SDS011;46987;32.638;-115.438;2023-04-01T00:23:20;4.75;;;1.20;;
61104;SDS011;46987;32.638;-115.438;2023-04-01T00:25:47;6.93;;;1.45;;
61104;SDS011;46987;32.638;-115.438;2023-04-01T00:28:15;8.82;;;1.33;;
61104;SDS011;46987;32.638;-115.438;2023-04-01T00:30:43;5.68;;;1.10;;
61104;SDS011;46987;32.638;-115.438;2023-04-01T00:33:12;5.78;;;0.85;;
61104;SDS011;46987;32.638;-115.438;2023-04-01T00:35:39;12.52;;;1.58;;
61104;SDS011;46987;32.638;-115.438;2023-04-01T00:38:06;3.70;;;0.98;;
61104;SDS011;46987;32.638;-115.438;2023-04-01T00:40:34;7.93;;;1.05;;
61104;SDS011;46987;32.638;-115.438;2023-04-01T00:43:01;2.17;;;0.80;;
61104;SDS011;46987;32.638;-115.438;2023-04-01T00:45:30;4.72;;;1.02;;
61104;SDS011;46987;32.638;-115.438;2023-04-01T00:47:59;4.28;;;0.90;;
61104;SDS011;46987;32.638;-115.438;2023-04-01T00:50:28;5.60;;;1.40;;
61104;SDS011;46987;32.638;-115.438;2023-04-01T00:52:55;4.60;;;1.20;;
61104;SDS011;46987;32.638;-115.438;2023-04-01T00:55:22;6.32;;;1.27;;
61104;SDS011;46987;32.638;-115.438;2023-04-01T00:57:49;9.70;;;1.35;;
61104;SDS011;46987;32.638;-115.438;2023-04-01T01:00:17;6.20;;;1.33;;
61104;SDS011;46987;32.638;-115.438;2023-04-01T01:02:44;10.75;;;1.75;;
61104;SDS011;46987;32.638;-115.438;2023-04-01T01:05:14;3.20;;;0.60;;
61104;SDS011;46987;32.638;-115.438;2023-04-01T01:07:42;5.72;;;0.95;;
61104;SDS011;46987;32.638;-115.438;2023-04-01T01:10:13;6.22;;;1.45;;
61104;SDS011;46987;32.638;-115.438;2023-04-01T01:12:43;7.72;;;1.13;;
61104;SDS011;46987;32.638;-115.438;2023-04-01T01:15:13;2.95;;;0.68;;
61104;SDS011;46987;32.638;-115.438;2023-04-01T01:17:44;5.63;;;1.40;;
61104;SDS011;46987;32.638;-115.438;2023-04-01T01:20:28;5.72;;;1.40;;
61104;SDS011;46987;32.638;-115.438;2023-04-01T01:23:04;3.58;;;1.00;;
61104;SDS011;46987;32.638;-115.438;2023-04-01T01:25:34;5.80;;;1.10;;
61104;SDS011;46987;32.638;-115.438;2023-04-01T01:28:12;3.40;;;0.90;;
61104;SDS011;46987;32.638;-115.438;2023-04-01T01:30:46;2.97;;;0.98;;
61104;SDS011;46987;32.638;-115.438;2023-04-01T01:33:24;6.53;;;1.17;;
61104;SDS011;46987;32.638;-115.438;2023-04-01T01:35:54;6.25;;;1.90;;
61104;SDS011;46987;32.638;-115.438;2023-04-01T02:06:52;6.45;;;1.77;;
61104;SDS011;46987;32.638;-115.438;2023-04-01T02:09:20;9.18;;;2.03;;
61104;SDS011;46987;32.638;-115.438;2023-04-01T02:11:48;9.80;;;1.90;;
61104;SDS011;46987;32.638;-115.438;2023-04-01T02:14:16;8.20;;;1.63;;
61104;SDS011;46987;32.638;-115.438;2023-04-01T02:16:45;10.60;;;2.45;;
61104;SDS011;46987;32.638;-115.438;2023-04-01T02:19:14;7.90;;;2.47;;
61104;SDS011;46987;32.638;-115.438;2023-04-01T02:21:42;7.90;;;2.80;;
61104;SDS011;46987;32.638;-115.438;2023-04-01T02:24:12;11.60;;;3.10;;
61104;SDS011;46987;32.638;-115.438;2023-04-01T02:26:41;8.90;;;2.88;;
61104;SDS011;46987;32.638;-115.438;2023-04-01T02:29:08;10.32;;;3.28;;
61104;SDS011;46987;32.638;-115.438;2023-04-01T02:31:35;10.43;;;5.00;;
61104;SDS011;46987;32.638;-115.438;2023-04-01T02:34:02;13.93;;;5.25;;
61104;SDS011;46987;32.638;-115.438;2023-04-01T02:36:29;16.77;;;5.10;;
61104;SDS011;46987;32.638;-115.438;2023-04-01T02:38:55;10.05;;;2.83;;
61104;SDS011;46987;32.638;-115.438;2023-04-01T02:41:27;10.63;;;3.35;;
61104;SDS011;46987;32.638;-115.438;2023-04-01T02:43:54;9.80;;;3.83;;
61104;SDS011;46987;32.638;-115.438;2023-04-01T02:46:21;9.02;;;3.75;;
61104;SDS011;46987;32.638;-115.438;2023-04-01T02:48:47;11.40;;;3.40;;
61104;SDS011;46987;32.638;-115.438;2023-04-01T02:51:14;12.68;;;3.63;;
61104;SDS011;46987;32.638;-115.438;2023-04-01T02:53:41;14.52;;;4.70;;
61104;SDS011;46987;32.638;-115.438;2023-04-01T02:56:07;14.25;;;4.32;;
61104;SDS011;46987;32.638;-115.438;2023-04-01T02:58:38;10.75;;;3.00;;
61104;SDS011;46987;32.638;-115.438;2023-04-01T03:01:05;6.85;;;2.40;;
61104;SDS011;46987;32.638;-115.438;2023-04-01T03:03:32;10.45;;;2.08;;
61104;SDS011;46987;32.638;-115.438;2023-04-01T03:06:01;10.20;;;2.42;;
61104;SDS011;46987;32.638;-115.438;2023-04-01T03:08:30;7.95;;;1.77;;
61104;SDS011;46987;32.638;-115.438;2023-04-01T03:10:57;6.15;;;2.05;;
61104;SDS011;46987;32.638;-115.438;2023-04-01T03:13:23;6.75;;;2.03;;
61104;SDS011;46987;32.638;-115.438;2023-04-01T03:15:52;9.82;;;2.28;;
61104;SDS011;46987;32.638;-115.438;2023-04-01T03:18:19;10.93;;;2.28;;
61104;SDS011;46987;32.638;-115.438;2023-04-01T03:20:45;8.43;;;2.65;;
61104;SDS011;46987;32.638;-115.438;2023-04-01T03:23:12;11.32;;;3.03;;
61104;SDS011;46987;32.638;-115.438;2023-04-01T03:25:40;13.32;;;3.33;;
61104;SDS011;46987;32.638;-115.438;2023-04-01T03:28:07;11.95;;;3.95;;
61104;SDS011;46987;32.638;-115.438;2023-04-01T03:30:33;10.27;;;3.80;;
61104;SDS011;46987;32.638;-115.438;2023-04-01T03:33:02;6.82;;;3.95;;
61104;SDS011;46987;32.638;-115.438;2023-04-01T03:35:31;10.85;;;3.13;;
61104;SDS011;46987;32.638;-115.438;2023-04-01T03:37:57;8.38;;;2.95;;
61104;SDS011;46987;32.638;-115.438;2023-04-01T03:40:25;10.77;;;3.35;;
61104;SDS011;46987;32.638;-115.438;2023-04-01T03:42:53;8.25;;;2.40;;
61104;SDS011;46987;32.638;-115.438;2023-04-01T03:45:19;7.20;;;2.90;;
61104;SDS011;46987;32.638;-115.438;2023-04-01T03:47:46;8.70;;;2.65;;
61104;SDS011;46987;32.638;-115.438;2023-04-01T03:50:15;8.75;;;2.53;;
61104;SDS011;46987;32.638;-115.438;2023-04-01T03:52:41;9.45;;;2.22;;
61104;SDS011;46987;32.638;-115.438;2023-04-01T03:55:08;9.95;;;2.97;;
61104;SDS011;46987;32.638;-115.438;2023-04-01T03:57:37;10.85;;;2.97;;
61104;SDS011;46987;32.638;-115.438;2023-04-01T04:00:14;9.43;;;2.85;;
61104;SDS011;46987;32.638;-115.438;2023-04-01T04:02:44;11.23;;;3.90;;
61104;SDS011;46987;32.638;-115.438;2023-04-01T04:05:16;9.10;;;3.80;;
61104;SDS011;46987;32.638;-115.438;2023-04-01T04:07:44;7.85;;;3.80;;
61104;SDS011;46987;32.638;-115.438;2023-04-01T04:10:11;9.07;;;3.17;;
61104;SDS011;46987;32.638;-115.438;2023-04-01T04:12:38;7.43;;;2.70;;
61104;SDS011;46987;32.638;-115.438;2023-04-01T04:15:06;7.22;;;2.90;;
61104;SDS011;46987;32.638;-115.438;2023-04-01T04:17:33;8.15;;;2.10;;
61104;SDS011;46987;32.638;-115.438;2023-04-01T04:20:00;6.93;;;3.05;;
61104;SDS011;46987;32.638;-115.438;2023-04-01T04:22:29;6.85;;;2.15;;
61104;SDS011;46987;32.638;-115.438;2023-04-01T04:24:56;9.57;;;2.80;;
61104;SDS011;46987;32.638;-115.438;2023-04-01T04:27:23;6.70;;;1.95;;
61104;SDS011;46987;32.638;-115.438;2023-04-01T04:30:01;4.78;;;1.55;;
61104;SDS011;46987;32.638;-115.438;2023-04-01T04:32:28;6.32;;;1.70;;
61104;SDS011;46987;32.638;-115.438;2023-04-01T04:34:56;7.60;;;2.05;;
61104;SDS011;46987;32.638;-115.438;2023-04-01T04:37:22;10.57;;;2.65;;
61104;SDS011;46987;32.638;-115.438;2023-04-01T04:39:51;6.80;;;2.03;;
61104;SDS011;46987;32.638;-115.438;2023-04-01T04:42:18;8.55;;;1.50;;
61104;SDS011;46987;32.638;-115.438;2023-04-01T04:44:45;8.93;;;1.92;;
61104;SDS011;46987;32.638;-115.438;2023-04-01T04:47:12;5.80;;;1.70;;
61104;SDS011;46987;32.638;-115.438;2023-04-01T04:49:39;8.82;;;2.03;;
61104;SDS011;46987;32.638;-115.438;2023-04-01T04:52:09;10.05;;;2.10;;
61104;SDS011;46987;32.638;-115.438;2023-04-01T04:54:35;11.98;;;1.85;;
61104;SDS011;46987;32.638;-115.438;2023-04-01T04:57:05;11.73;;;1.98;;
61104;SDS011;46987;32.638;-115.438;2023-04-01T04:59:38;7.93;;;2.03;;
61104;SDS011;46987;32.638;-115.438;2023-04-01T05:02:11;9.57;;;1.83;;
61104;SDS011;46987;32.638;-115.438;2023-04-01T05:04:38;8.95;;;2.03;;
61104;SDS011;46987;32.638;-115.438;2023-04-01T05:07:12;7.57;;;2.08;;
61104;SDS011;46987;32.638;-115.438;2023-04-01T05:09:39;7.07;;;1.65;;
61104;SDS011;46987;32.638;-115.438;2023-04-01T05:12:08;8.10;;;2.53;;
61104;SDS011;46987;32.638;-115.438;2023-04-01T05:14:57;9.18;;;2.20;;
61104;SDS011;46987;32.638;-115.438;2023-04-01T05:17:24;6.45;;;2.58;;
61104;SDS011;46987;32.638;-115.438;2023-04-01T05:19:50;20.65;;;2.88;;
61104;SDS011;46987;32.638;-115.438;2023-04-01T05:22:17;9.65;;;2.53;;
61104;SDS011;46987;32.638;-115.438;2023-04-01T05:24:44;13.57;;;3.22;;
61104;SDS011;46987;32.638;-115.438;2023-04-01T05:27:14;16.80;;;3.53;;
61104;SDS011;46987;32.638;-115.438;2023-04-01T05:29:42;9.55;;;2.00;;
61104;SDS011;46987;32.638;-115.438;2023-04-01T05:32:23;8.18;;;2.35;;
61104;SDS011;46987;32.638;-115.438;2023-04-01T05:34:50;11.85;;;3.00;;
61104;SDS011;46987;32.638;-115.438;2023-04-01T05:37:17;11.98;;;3.38;;
61104;SDS011;46987;32.638;-115.438;2023-04-01T05:39:43;12.50;;;3.92;;
61104;SDS011;46987;32.638;-115.438;2023-04-01T05:42:10;13.63;;;5.28;;
61104;SDS011;46987;32.638;-115.438;2023-04-01T05:44:41;16.17;;;5.88;;
61104;SDS011;46987;32.638;-115.438;2023-04-01T05:47:07;17.15;;;5.07;;
61104;SDS011;46987;32.638;-115.438;2023-04-01T05:49:35;17.35;;;4.93;;
61104;SDS011;46987;32.638;-115.438;2023-04-01T05:52:03;16.83;;;4.80;;
61104;SDS011;46987;32.638;-115.438;2023-04-01T05:54:31;15.02;;;4.40;;
61104;SDS011;46987;32.638;-115.438;2023-04-01T05:56:57;11.10;;;4.78;;
61104;SDS011;46987;32.638;-115.438;2023-04-01T05:59:24;13.80;;;4.53;;
61104;SDS011;46987;32.638;-115.438;2023-04-01T06:01:53;20.30;;;4.95;;
61104;SDS011;46987;32.638;-115.438;2023-04-01T06:04:19;15.52;;;5.05;;
61104;SDS011;46987;32.638;-115.438;2023-04-01T06:06:46;16.00;;;5.35;;
61104;SDS011;46987;32.638;-115.438;2023-04-01T06:09:14;14.23;;;5.53;;
61104;SDS011;46987;32.638;-115.438;2023-04-01T06:11:57;17.95;;;5.63;;
61104;SDS011;46987;32.638;-115.438;2023-04-01T06:14:33;20.63;;;5.72;;
61104;SDS011;46987;32.638;-115.438;2023-04-01T06:17:07;11.88;;;4.55;;
61104;SDS011;46987;32.638;-115.438;2023-04-01T06:19:40;11.82;;;4.22;;
61104;SDS011;46987;32.638;-115.438;2023-04-01T06:24:57;15.70;;;3.08;;
61104;SDS011;46987;32.638;-115.438;2023-04-01T06:27:29;8.88;;;3.72;;
61104;SDS011;46987;32.638;-115.438;2023-04-01T06:30:05;9.63;;;3.70;;
61104;SDS011;46987;32.638;-115.438;2023-04-01T06:32:48;9.10;;;3.60;;
61104;SDS011;46987;32.638;-115.438;2023-04-01T06:35:20;10.77;;;3.63;;
61104;SDS011;46987;32.638;-115.438;2023-04-01T06:37:53;9.70;;;3.38;;
61104;SDS011;46987;32.638;-115.438;2023-04-01T06:40:35;12.90;;;3.83;;
61104;SDS011;46987;32.638;-115.438;2023-04-01T06:43:06;13.57;;;3.72;;
61104;SDS011;46987;32.638;-115.438;2023-04-01T06:45:53;7.85;;;3.45;;
61104;SDS011;46987;32.638;-115.438;2023-04-01T06:51:43;14.60;;;3.83;;
61104;SDS011;46987;32.638;-115.438;2023-04-01T06:54:31;11.30;;;3.25;;
61104;SDS011;46987;32.638;-115.438;2023-04-01T06:57:20;13.02;;;3.70;;
61104;SDS011;46987;32.638;-115.438;2023-04-01T06:59:48;12.82;;;3.53;;
61104;SDS011;46987;32.638;-115.438;2023-04-01T07:02:18;10.18;;;3.30;;
61104;SDS011;46987;32.638;-115.438;2023-04-01T07:04:46;9.68;;;4.20;;
61104;SDS011;46987;32.638;-115.438;2023-04-01T07:07:19;11.93;;;3.83;;
61104;SDS011;46987;32.638;-115.438;2023-04-01T07:09:56;8.00;;;3.55;;
61104;SDS011;46987;32.638;-115.438;2023-04-01T07:12:32;10.40;;;3.70;;
61104;SDS011;46987;32.638;-115.438;2023-04-01T07:15:19;8.68;;;3.75;;
61104;SDS011;46987;32.638;-115.438;2023-04-01T07:17:47;9.25;;;3.40;;
61104;SDS011;46987;32.638;-115.438;2023-04-01T07:22:45;14.00;;;3.25;;
61104;SDS011;46987;32.638;-115.438;2023-04-01T07:25:35;8.20;;;3.20;;
61104;SDS011;46987;32.638;-115.438;2023-04-01T07:28:35;11.00;;;3.38;;
61104;SDS011;46987;32.638;-115.438;2023-04-01T07:31:34;6.03;;;2.97;;
61104;SDS011;46987;32.638;-115.438;2023-04-01T07:34:08;13.18;;;3.50;;
61104;SDS011;46987;32.638;-115.438;2023-04-01T07:36:37;11.15;;;3.55;;
61104;SDS011;46987;32.638;-115.438;2023-04-01T07:39:08;14.48;;;3.85;;
61104;SDS011;46987;32.638;-115.438;2023-04-01T07:42:01;13.90;;;2.92;;
61104;SDS011;46987;32.638;-115.438;2023-04-01T07:44:34;8.85;;;3.63;;
61104;SDS011;46987;32.638;-115.438;2023-04-01T07:47:19;9.52;;;4.00;;
61104;SDS011;46987;32.638;-115.438;2023-04-01T07:49:52;9.95;;;4.70;;
61104;SDS011;46987;32.638;-115.438;2023-04-01T07:52:23;11.55;;;4.80;;
61104;SDS011;46987;32.638;-115.438;2023-04-01T07:55:02;12.25;;;5.75;;
61104;SDS011;46987;32.638;-115.438;2023-04-01T07:57:34;16.45;;;7.18;;
61104;SDS011;46987;32.638;-115.438;2023-04-01T08:00:06;23.00;;;7.60;;
61104;SDS011;46987;32.638;-115.438;2023-04-01T08:03:15;15.40;;;7.22;;
61104;SDS011;46987;32.638;-115.438;2023-04-01T08:05:46;28.13;;;9.77;;
61104;SDS011;46987;32.638;-115.438;2023-04-01T08:08:18;28.05;;;10.43;;
61104;SDS011;46987;32.638;-115.438;2023-04-01T08:11:07;26.80;;;11.77;;
61104;SDS011;46987;32.638;-115.438;2023-04-01T08:13:58;29.63;;;12.95;;
61104;SDS011;46987;32.638;-115.438;2023-04-01T08:16:46;29.73;;;12.85;;
61104;SDS011;46987;32.638;-115.438;2023-04-01T08:19:27;25.65;;;12.05;;
61104;SDS011;46987;32.638;-115.438;2023-04-01T08:22:00;28.48;;;11.00;;
61104;SDS011;46987;32.638;-115.438;2023-04-01T08:24:33;20.80;;;9.55;;
61104;SDS011;46987;32.638;-115.438;2023-04-01T08:27:05;18.15;;;8.68;;
61104;SDS011;46987;32.638;-115.438;2023-04-01T08:29:34;19.05;;;7.15;;
61104;SDS011;46987;32.638;-115.438;2023-04-01T08:32:05;19.45;;;6.82;;
61104;SDS011;46987;32.638;-115.438;2023-04-01T08:34:34;16.02;;;6.40;;
61104;SDS011;46987;32.638;-115.438;2023-04-01T08:37:04;14.38;;;6.20;;
61104;SDS011;46987;32.638;-115.438;2023-04-01T08:39:32;19.75;;;6.28;;
61104;SDS011;46987;32.638;-115.438;2023-04-01T08:42:15;16.35;;;6.35;;
61104;SDS011;46987;32.638;-115.438;2023-04-01T08:47:41;19.38;;;6.38;;
61104;SDS011;46987;32.638;-115.438;2023-04-01T08:53:16;12.75;;;4.80;;
61104;SDS011;46987;32.638;-115.438;2023-04-01T08:55:47;12.35;;;4.65;;
61104;SDS011;46987;32.638;-115.438;2023-04-01T09:01:24;8.05;;;3.10;;
61104;SDS011;46987;32.638;-115.438;2023-04-01T09:04:05;13.07;;;3.45;;
61104;SDS011;46987;32.638;-115.438;2023-04-01T09:06:41;9.73;;;3.03;;
61104;SDS011;46987;32.638;-115.438;2023-04-01T09:12:24;9.93;;;2.80;;
61104;SDS011;46987;32.638;-115.438;2023-04-01T09:15:02;7.07;;;2.30;;
61104;SDS011;46987;32.638;-115.438;2023-04-01T09:17:42;8.95;;;3.45;;
61104;SDS011;46987;32.638;-115.438;2023-04-01T09:20:19;6.40;;;3.53;;
61104;SDS011;46987;32.638;-115.438;2023-04-01T09:25:50;8.30;;;2.67;;
61104;SDS011;46987;32.638;-115.438;2023-04-01T09:28:20;5.32;;;2.05;;
61104;SDS011;46987;32.638;-115.438;2023-04-01T09:31:04;10.05;;;2.13;;
61104;SDS011;46987;32.638;-115.438;2023-04-01T09:33:50;6.85;;;2.30;;
61104;SDS011;46987;32.638;-115.438;2023-04-01T09:36:33;10.23;;;1.92;;
61104;SDS011;46987;32.638;-115.438;2023-04-01T09:39:11;11.10;;;2.05;;
61104;SDS011;46987;32.638;-115.438;2023-04-01T09:41:39;7.43;;;1.90;;
61104;SDS011;46987;32.638;-115.438;2023-04-01T09:44:18;5.15;;;1.60;;
61104;SDS011;46987;32.638;-115.438;2023-04-01T09:47:04;5.32;;;1.85;;
61104;SDS011;46987;32.638;-115.438;2023-04-01T09:49:40;9.77;;;1.92;;
61104;SDS011;46987;32.638;-115.438;2023-04-01T09:52:18;9.38;;;1.48;;
61104;SDS011;46987;32.638;-115.438;2023-04-01T09:54:56;7.75;;;1.50;;
61104;SDS011;46987;32.638;-115.438;2023-04-01T10:00:33;3.20;;;1.30;;
61104;SDS011;46987;32.638;-115.438;2023-04-01T10:03:17;8.02;;;1.88;;
61104;SDS011;46987;32.638;-115.438;2023-04-01T10:14:29;8.35;;;1.30;;
61104;SDS011;46987;32.638;-115.438;2023-04-01T10:25:29;7.78;;;1.67;;
61104;SDS011;46987;32.638;-115.438;2023-04-01T10:28:10;5.15;;;1.35;;
61104;SDS011;46987;32.638;-115.438;2023-04-01T10:31:07;6.47;;;1.90;;
61104;SDS011;46987;32.638;-115.438;2023-04-01T10:33:49;5.97;;;1.27;;
61104;SDS011;46987;32.638;-115.438;2023-04-01T10:36:41;9.20;;;1.55;;
61104;SDS011;46987;32.638;-115.438;2023-04-01T10:42:11;7.40;;;1.42;;
61104;SDS011;46987;32.638;-115.438;2023-04-01T10:48:10;8.52;;;1.00;;
61104;SDS011;46987;32.638;-115.438;2023-04-01T10:56:35;3.47;;;1.33;;
61104;SDS011;46987;32.638;-115.438;2023-04-01T11:05:51;3.10;;;1.00;;
61104;SDS011;46987;32.638;-115.438;2023-04-01T11:08:39;3.75;;;0.80;;
61104;SDS011;46987;32.638;-115.438;2023-04-01T11:14:17;6.75;;;1.00;;
61104;SDS011;46987;32.638;-115.438;2023-04-01T11:17:01;1.38;;;0.73;;
61104;SDS011;46987;32.638;-115.438;2023-04-01T11:19:40;5.40;;;0.98;;
61104;SDS011;46987;32.638;-115.438;2023-04-01T11:25:24;5.70;;;1.00;;
61104;SDS011;46987;32.638;-115.438;2023-04-01T11:28:24;2.70;;;1.00;;
61104;SDS011;46987;32.638;-115.438;2023-04-01T11:33:40;4.15;;;1.00;;
61104;SDS011;46987;32.638;-115.438;2023-04-01T11:36:15;4.72;;;1.23;;
61104;SDS011;46987;32.638;-115.438;2023-04-01T11:38:48;6.93;;;1.10;;
61104;SDS011;46987;32.638;-115.438;2023-04-01T11:41:40;3.83;;;1.23;;
61104;SDS011;46987;32.638;-115.438;2023-04-01T11:44:28;4.07;;;0.85;;
61104;SDS011;46987;32.638;-115.438;2023-04-01T11:47:19;3.45;;;0.90;;
61104;SDS011;46987;32.638;-115.438;2023-04-01T11:49:55;6.68;;;1.13;;
61104;SDS011;46987;32.638;-115.438;2023-04-01T11:52:51;6.05;;;1.33;;
61104;SDS011;46987;32.638;-115.438;2023-04-01T11:55:22;5.35;;;1.05;;
61104;SDS011;46987;32.638;-115.438;2023-04-01T11:57:54;3.80;;;2.20;;
61104;SDS011;46987;32.638;-115.438;2023-04-01T12:03:13;5.28;;;1.85;;
61104;SDS011;46987;32.638;-115.438;2023-04-01T12:05:43;6.47;;;1.42;;
61104;SDS011;46987;32.638;-115.438;2023-04-01T12:08:18;6.55;;;1.33;;
61104;SDS011;46987;32.638;-115.438;2023-04-01T12:10:49;4.75;;;1.63;;
61104;SDS011;46987;32.638;-115.438;2023-04-01T12:13:26;6.35;;;1.30;;
61104;SDS011;46987;32.638;-115.438;2023-04-01T12:15:56;4.55;;;1.25;;
61104;SDS011;46987;32.638;-115.438;2023-04-01T12:18:26;8.40;;;1.20;;
61104;SDS011;46987;32.638;-115.438;2023-04-01T12:20:57;5.97;;;1.30;;
61104;SDS011;46987;32.638;-115.438;2023-04-01T12:23:32;4.68;;;1.75;;
61104;SDS011;46987;32.638;-115.438;2023-04-01T12:26:21;5.15;;;0.98;;
61104;SDS011;46987;32.638;-115.438;2023-04-01T12:28:54;4.22;;;1.10;;
61104;SDS011;46987;32.638;-115.438;2023-04-01T12:31:31;4.35;;;1.00;;
61104;SDS011;46987;32.638;-115.438;2023-04-01T12:34:13;7.00;;;1.55;;
61104;SDS011;46987;32.638;-115.438;2023-04-01T12:36:48;7.78;;;1.13;;
61104;SDS011;46987;32.638;-115.438;2023-04-01T12:39:29;7.57;;;1.33;;
61104;SDS011;46987;32.638;-115.438;2023-04-01T12:41:59;7.60;;;1.02;;
61104;SDS011;46987;32.638;-115.438;2023-04-01T12:44:39;4.90;;;1.30;;
61104;SDS011;46987;32.638;-115.438;2023-04-01T12:50:05;6.00;;;0.75;;
61104;SDS011;46987;32.638;-115.438;2023-04-01T12:52:37;5.40;;;1.00;;
61104;SDS011;46987;32.638;-115.438;2023-04-01T12:58:05;4.00;;;1.40;;
61104;SDS011;46987;32.638;-115.438;2023-04-01T13:03:27;5.10;;;2.08;;
61104;SDS011;46987;32.638;-115.438;2023-04-01T13:06:11;4.43;;;1.17;;
61104;SDS011;46987;32.638;-115.438;2023-04-01T13:08:44;2.90;;;0.90;;
61104;SDS011;46987;32.638;-115.438;2023-04-01T13:11:17;4.05;;;1.20;;
61104;SDS011;46987;32.638;-115.438;2023-04-01T13:13:49;4.95;;;0.80;;
61104;SDS011;46987;32.638;-115.438;2023-04-01T13:16:18;2.53;;;0.85;;
61104;SDS011;46987;32.638;-115.438;2023-04-01T13:18:52;4.22;;;1.30;;
61104;SDS011;46987;32.638;-115.438;2023-04-01T13:21:23;2.22;;;0.77;;
61104;SDS011;46987;32.638;-115.438;2023-04-01T13:23:55;4.78;;;0.85;;
61104;SDS011;46987;32.638;-115.438;2023-04-01T13:26:28;7.80;;;1.27;;
61104;SDS011;46987;32.638;-115.438;2023-04-01T13:28:58;3.53;;;0.98;;
61104;SDS011;46987;32.638;-115.438;2023-04-01T13:31:30;5.82;;;1.70;;
61104;SDS011;46987;32.638;-115.438;2023-04-01T13:34:03;5.47;;;1.27;;
61104;SDS011;46987;32.638;-115.438;2023-04-01T13:36:36;5.43;;;1.70;;
61104;SDS011;46987;32.638;-115.438;2023-04-01T13:39:09;3.17;;;1.83;;
61104;SDS011;46987;32.638;-115.438;2023-04-01T13:41:42;5.20;;;1.05;;
61104;SDS011;46987;32.638;-115.438;2023-04-01T13:44:14;3.85;;;1.05;;
61104;SDS011;46987;32.638;-115.438;2023-04-01T13:46:48;4.35;;;1.35;;
61104;SDS011;46987;32.638;-115.438;2023-04-01T13:49:28;9.60;;;2.40;;
61104;SDS011;46987;32.638;-115.438;2023-04-01T13:52:15;15.68;;;9.50;;
61104;SDS011;46987;32.638;-115.438;2023-04-01T13:54:49;15.65;;;8.48;;
61104;SDS011;46987;32.638;-115.438;2023-04-01T13:57:22;13.85;;;6.57;;
61104;SDS011;46987;32.638;-115.438;2023-04-01T13:59:59;7.60;;;3.75;;
61104;SDS011;46987;32.638;-115.438;2023-04-01T14:02:39;9.80;;;4.13;;
61104;SDS011;46987;32.638;-115.438;2023-04-01T14:07:58;17.55;;;12.10;;
61104;SDS011;46987;32.638;-115.438;2023-04-01T14:10:29;21.38;;;18.20;;
61104;SDS011;46987;32.638;-115.438;2023-04-01T14:12:58;27.10;;;20.95;;
61104;SDS011;46987;32.638;-115.438;2023-04-01T14:15:31;14.00;;;10.90;;
61104;SDS011;46987;32.638;-115.438;2023-04-01T14:18:06;13.60;;;10.75;;
61104;SDS011;46987;32.638;-115.438;2023-04-01T14:20:37;12.32;;;5.75;;
61104;SDS011;46987;32.638;-115.438;2023-04-01T14:23:12;40.95;;;9.55;;
61104;SDS011;46987;32.638;-115.438;2023-04-01T14:25:45;22.58;;;4.65;;
61104;SDS011;46987;32.638;-115.438;2023-04-01T14:28:17;11.48;;;2.55;;
61104;SDS011;46987;32.638;-115.438;2023-04-01T14:30:54;11.63;;;1.52;;
61104;SDS011;46987;32.638;-115.438;2023-04-01T14:33:26;4.60;;;1.00;;
61104;SDS011;46987;32.638;-115.438;2023-04-01T14:36:00;7.82;;;1.42;;
61104;SDS011;46987;32.638;-115.438;2023-04-01T14:41:20;7.18;;;1.30;;
61104;SDS011;46987;32.638;-115.438;2023-04-01T14:44:00;6.13;;;1.25;;
61104;SDS011;46987;32.638;-115.438;2023-04-01T14:49:20;5.35;;;1.38;;
61104;SDS011;46987;32.638;-115.438;2023-04-01T14:51:48;7.07;;;1.48;;
61104;SDS011;46987;32.638;-115.438;2023-04-01T14:54:15;7.72;;;2.20;;
61104;SDS011;46987;32.638;-115.438;2023-04-01T14:56:50;12.10;;;2.00;;
61104;SDS011;46987;32.638;-115.438;2023-04-01T14:59:26;10.05;;;1.73;;
61104;SDS011;46987;32.638;-115.438;2023-04-01T15:01:55;6.93;;;2.00;;
61104;SDS011;46987;32.638;-115.438;2023-04-01T15:04:36;8.27;;;1.55;;
61104;SDS011;46987;32.638;-115.438;2023-04-01T15:07:15;3.97;;;1.02;;
61104;SDS011;46987;32.638;-115.438;2023-04-01T15:09:46;4.60;;;0.95;;
61104;SDS011;46987;32.638;-115.438;2023-04-01T15:12:20;4.03;;;0.90;;
61104;SDS011;46987;32.638;-115.438;2023-04-01T15:17:37;5.60;;;1.00;;
61104;SDS011;46987;32.638;-115.438;2023-04-01T15:20:12;3.40;;;0.90;;
61104;SDS011;46987;32.638;-115.438;2023-04-01T15:22:53;4.70;;;1.23;;
61104;SDS011;46987;32.638;-115.438;2023-04-01T15:25:30;9.52;;;1.13;;
61104;SDS011;46987;32.638;-115.438;2023-04-01T15:28:03;4.63;;;0.85;;
61104;SDS011;46987;32.638;-115.438;2023-04-01T15:30:33;9.88;;;1.42;;
61104;SDS011;46987;32.638;-115.438;2023-04-01T15:35:46;4.07;;;0.90;;
61104;SDS011;46987;32.638;-115.438;2023-04-01T15:38:19;3.17;;;0.93;;
61104;SDS011;46987;32.638;-115.438;2023-04-01T15:40:51;4.45;;;0.90;;
61104;SDS011;46987;32.638;-115.438;2023-04-01T15:43:25;4.38;;;0.88;;
61104;SDS011;46987;32.638;-115.438;2023-04-01T15:45:57;3.45;;;1.13;;
61104;SDS011;46987;32.638;-115.438;2023-04-01T15:48:31;4.63;;;1.08;;
61104;SDS011;46987;32.638;-115.438;2023-04-01T15:51:02;5.97;;;1.40;;
61104;SDS011;46987;32.638;-115.438;2023-04-01T15:53:48;2.75;;;0.80;;
61104;SDS011;46987;32.638;-115.438;2023-04-01T15:56:20;3.30;;;1.00;;
61104;SDS011;46987;32.638;-115.438;2023-04-01T15:58:56;5.45;;;0.77;;
61104;SDS011;46987;32.638;-115.438;2023-04-01T16:01:27;4.28;;;0.93;;
61104;SDS011;46987;32.638;-115.438;2023-04-01T16:03:57;2.20;;;0.82;;
61104;SDS011;46987;32.638;-115.438;2023-04-01T16:06:43;2.95;;;0.77;;
61104;SDS011;46987;32.638;-115.438;2023-04-01T16:09:17;4.03;;;0.90;;
61104;SDS011;46987;32.638;-115.438;2023-04-01T16:11:48;3.25;;;1.00;;
61104;SDS011;46987;32.638;-115.438;2023-04-01T16:14:21;3.70;;;0.80;;
61104;SDS011;46987;32.638;-115.438;2023-04-01T16:16:52;5.20;;;1.10;;
61104;SDS011;46987;32.638;-115.438;2023-04-01T16:19:27;4.05;;;1.20;;
61104;SDS011;46987;32.638;-115.438;2023-04-01T16:21:58;4.22;;;0.90;;
61104;SDS011;46987;32.638;-115.438;2023-04-01T16:24:30;3.95;;;1.02;;
61104;SDS011;46987;32.638;-115.438;2023-04-01T16:27:00;3.15;;;0.70;;
61104;SDS011;46987;32.638;-115.438;2023-04-01T17:03:46;3.35;;;1.08;;
61104;SDS011;46987;32.638;-115.438;2023-04-01T17:06:21;2.67;;;0.73;;
61104;SDS011;46987;32.638;-115.438;2023-04-01T17:08:55;3.53;;;0.95;;
61104;SDS011;46987;32.638;-115.438;2023-04-01T17:11:25;6.60;;;0.85;;
61104;SDS011;46987;32.638;-115.438;2023-04-01T17:13:55;2.72;;;1.00;;
61104;SDS011;46987;32.638;-115.438;2023-04-01T17:19:17;1.40;;;0.45;;